createdAt,value
2022-07-28T00:02:27.385Z,1.75
2022-07-28T00:06:29.326Z,1.65
2022-07-28T00:10:32.217Z,1.73
2022-07-28T00:14:34.544Z,1.60
2022-07-28T00:18:35.946Z,1.42
2022-07-28T00:22:44.881Z,1.50
2022-07-28T00:26:46.862Z,1.73
2022-07-28T00:30:48.574Z,2.10
2022-07-28T00:34:53.505Z,1.30
2022-07-28T00:38:55.253Z,1.67
2022-07-28T00:42:57.172Z,1.40
2022-07-28T00:46:58.667Z,1.63
2022-07-28T00:51:00.198Z,2.13
2022-07-28T00:55:04.439Z,2.22
2022-07-28T00:59:05.859Z,1.67
2022-07-28T01:03:07.536Z,1.83
2022-07-28T01:07:33.271Z,2.05
2022-07-28T01:11:42.612Z,2.08
2022-07-28T01:16:12.749Z,1.45
2022-07-28T01:20:23.339Z,1.42
2022-07-28T01:24:28.355Z,1.95
2022-07-28T01:29:04.043Z,1.92
2022-07-28T01:33:13.018Z,1.90
2022-07-28T01:37:18.897Z,1.83
2022-07-28T01:41:22.530Z,1.80
2022-07-28T01:45:25.121Z,1.38
2022-07-28T01:49:28.010Z,1.90
2022-07-28T01:53:31.351Z,2.17
2022-07-28T01:57:42.976Z,2.05
2022-07-28T02:01:45.626Z,1.75
2022-07-28T02:05:50.293Z,1.83
2022-07-28T02:09:53.118Z,2.00
2022-07-28T02:13:55.629Z,1.95
2022-07-28T02:17:57.792Z,1.77
2022-07-28T02:22:01.058Z,1.80
2022-07-28T02:26:04.781Z,1.90
2022-07-28T02:30:17.739Z,1.90
2022-07-28T02:34:26.268Z,1.70
2022-07-28T02:38:39.545Z,1.85
2022-07-28T02:42:41.713Z,2.05
2022-07-28T02:46:45.399Z,1.83
2022-07-28T02:50:47.718Z,1.95
2022-07-28T02:54:50.384Z,2.30
2022-07-28T02:58:52.865Z,2.38
2022-07-28T03:02:55.380Z,1.65
2022-07-28T03:06:56.804Z,1.80
2022-07-28T03:11:11.745Z,2.05
2022-07-28T03:15:13.487Z,2.63
2022-07-28T03:19:15.015Z,2.38
2022-07-28T03:23:16.516Z,1.83
2022-07-28T03:27:34.887Z,1.88
2022-07-28T03:31:37.216Z,2.45
2022-07-28T03:35:40.109Z,2.03
2022-07-28T03:39:48.055Z,2.50
2022-07-28T03:43:50.241Z,1.70
2022-07-28T03:47:57.737Z,2.35
2022-07-28T03:51:59.299Z,1.85
2022-07-28T03:56:00.759Z,2.63
2022-07-28T04:00:06.126Z,1.75
2022-07-28T04:04:10.983Z,2.58
2022-07-28T04:08:12.567Z,2.05
2022-07-28T04:12:14.037Z,2.10
2022-07-28T04:16:15.739Z,2.33
2022-07-28T04:20:18.081Z,2.30
2022-07-28T04:24:19.938Z,2.33
2022-07-28T04:28:21.904Z,2.53
2022-07-28T04:32:23.498Z,1.88
2022-07-28T04:36:25.783Z,2.60
2022-07-28T04:40:27.928Z,2.13
2022-07-28T04:44:29.443Z,1.75
2022-07-28T04:48:30.941Z,2.35
2022-07-28T04:52:33.940Z,1.90
2022-07-28T04:56:37.574Z,3.15
2022-07-28T05:00:39.028Z,2.50
2022-07-28T05:04:40.578Z,1.98
2022-07-28T05:08:42.178Z,2.20
2022-07-28T05:12:45.332Z,2.40
2022-07-28T05:16:47.070Z,2.03
2022-07-28T05:20:48.650Z,1.88
2022-07-28T05:24:52.533Z,2.03
2022-07-28T05:28:56.090Z,2.00
2022-07-28T05:33:07.291Z,2.25
2022-07-28T05:37:23.282Z,2.00
2022-07-28T05:41:35.446Z,2.10
2022-07-28T05:45:43.929Z,2.20
2022-07-28T05:49:52.033Z,2.35
2022-07-28T05:53:53.620Z,2.00
2022-07-28T05:58:51.003Z,2.15
2022-07-28T06:07:12.045Z,2.50
2022-07-28T06:11:22.227Z,2.78
2022-07-28T06:15:29.127Z,2.60
2022-07-28T06:19:30.628Z,3.42
2022-07-28T06:23:32.224Z,4.10
2022-07-28T06:27:33.825Z,3.80
2022-07-28T06:31:36.006Z,3.92
2022-07-28T06:35:46.664Z,4.00
2022-07-28T06:39:52.806Z,3.58
2022-07-28T06:43:54.626Z,4.40
2022-07-28T06:56:40.936Z,4.13
2022-07-28T07:00:45.674Z,3.72
2022-07-28T07:04:54.694Z,4.82
2022-07-28T07:08:56.301Z,3.95
2022-07-28T07:13:30.226Z,4.45
2022-07-28T07:18:02.233Z,3.78
2022-07-28T07:22:17.464Z,4.13
2022-07-28T07:26:22.143Z,4.72
2022-07-28T07:39:07.901Z,4.55
2022-07-28T07:43:18.192Z,5.47
2022-07-28T07:47:20.064Z,4.68
2022-07-28T07:51:59.051Z,4.63
2022-07-28T07:56:14.922Z,4.97
2022-07-28T08:00:27.927Z,4.50
2022-07-28T08:04:31.075Z,5.07
2022-07-28T08:08:37.310Z,5.57
2022-07-28T08:12:43.150Z,5.43
2022-07-28T08:16:44.646Z,4.45
2022-07-28T08:20:46.076Z,5.28
2022-07-28T08:24:47.498Z,4.85
2022-07-28T08:28:49.190Z,5.68
2022-07-28T08:32:56.889Z,5.30
2022-07-28T08:36:59.066Z,5.18
2022-07-28T08:41:03.922Z,4.85
2022-07-28T08:45:07.134Z,5.18
2022-07-28T08:49:10.006Z,6.32
2022-07-28T08:53:11.887Z,5.68
2022-07-28T08:57:18.034Z,5.28
2022-07-28T09:01:19.616Z,4.82
2022-07-28T09:05:22.025Z,4.28
2022-07-28T09:09:23.587Z,5.30
2022-07-28T09:13:25.462Z,5.80
2022-07-28T09:17:27.783Z,5.68
2022-07-28T09:21:29.680Z,3.88
2022-07-28T09:25:31.602Z,4.35
2022-07-28T09:29:34.384Z,4.97
2022-07-28T09:33:42.225Z,4.68
2022-07-28T09:37:48.998Z,5.80
2022-07-28T09:41:55.827Z,4.97
2022-07-28T09:46:15.697Z,5.13
2022-07-28T09:50:41.854Z,4.55
2022-07-28T09:59:42.735Z,4.78
2022-07-28T10:03:50.485Z,4.07
2022-07-28T10:07:51.947Z,4.45
2022-07-28T10:11:53.388Z,4.57
2022-07-28T10:16:11.954Z,4.75
2022-07-28T10:20:13.447Z,4.80
2022-07-28T10:24:22.032Z,3.85
2022-07-28T10:28:23.986Z,4.95
2022-07-28T10:32:26.072Z,4.95
2022-07-28T10:36:28.158Z,4.20
2022-07-28T10:40:40.674Z,3.50
2022-07-28T10:44:43.511Z,4.00
2022-07-28T10:48:44.979Z,3.85
2022-07-28T10:52:49.876Z,3.88
2022-07-28T10:56:57.107Z,4.10
2022-07-28T11:01:05.556Z,3.50
2022-07-28T11:05:33.934Z,4.38
2022-07-28T11:09:35.477Z,4.07
2022-07-28T11:13:41.108Z,3.60
2022-07-28T11:17:57.564Z,3.90
2022-07-28T11:22:19.366Z,3.55
2022-07-28T11:26:20.862Z,4.47
2022-07-28T11:30:28.892Z,3.72
2022-07-28T11:35:04.406Z,3.67
2022-07-28T11:39:26.814Z,3.50
2022-07-28T11:43:36.456Z,3.25
2022-07-28T11:47:38.610Z,3.20
2022-07-28T11:51:52.520Z,3.03
2022-07-28T11:56:02.474Z,3.22
2022-07-28T12:00:05.071Z,2.40
2022-07-28T12:04:15.810Z,3.15
2022-07-28T12:08:17.719Z,3.25
2022-07-28T12:12:19.205Z,2.70
2022-07-28T12:16:21.142Z,3.13
2022-07-28T12:20:23.308Z,3.30
2022-07-28T12:24:30.672Z,3.25
2022-07-28T12:28:33.002Z,2.70
2022-07-28T12:32:35.458Z,3.20
2022-07-28T12:36:37.920Z,3.50
2022-07-28T12:40:39.996Z,4.03
2022-07-28T12:44:44.204Z,3.65
2022-07-28T12:48:45.780Z,2.83
2022-07-28T12:53:24.448Z,3.42
2022-07-28T12:57:50.379Z,3.40
2022-07-28T13:01:56.745Z,3.80
2022-07-28T13:06:09.804Z,3.42
2022-07-28T13:10:12.464Z,3.35
2022-07-28T13:14:14.402Z,3.20
2022-07-28T13:18:16.086Z,2.85
2022-07-28T13:22:30.185Z,3.35
2022-07-28T13:26:31.703Z,2.97
2022-07-28T13:30:33.115Z,3.33
2022-07-28T13:34:34.954Z,3.53
2022-07-28T13:38:36.535Z,3.00
2022-07-28T13:42:37.973Z,3.28
2022-07-28T13:46:45.165Z,3.00
2022-07-28T13:50:48.888Z,3.38
2022-07-28T13:54:51.028Z,3.95
2022-07-28T13:58:52.689Z,3.45
2022-07-28T14:02:54.512Z,2.58
2022-07-28T14:06:56.047Z,2.95
2022-07-28T14:10:59.126Z,2.92
2022-07-28T14:15:00.634Z,3.05
2022-07-28T14:19:02.684Z,3.38
2022-07-28T14:23:04.942Z,3.22
2022-07-28T14:27:06.385Z,3.15
2022-07-28T14:31:07.979Z,3.08
2022-07-28T14:35:13.779Z,2.80
2022-07-28T14:39:15.192Z,2.75
2022-07-28T14:43:16.946Z,3.47
2022-07-28T14:47:19.333Z,3.10
2022-07-28T14:51:20.923Z,4.10
2022-07-28T14:55:22.676Z,3.10
2022-07-28T14:59:24.434Z,2.90
2022-07-28T15:03:35.794Z,3.47
2022-07-28T15:07:38.075Z,3.05
2022-07-28T15:11:41.236Z,2.97
2022-07-28T15:15:44.814Z,2.72
2022-07-28T15:19:47.150Z,3.20
2022-07-28T15:23:48.809Z,3.03
2022-07-28T15:27:51.289Z,3.45
2022-07-28T15:32:13.045Z,3.45
2022-07-28T15:36:27.608Z,3.10
2022-07-28T15:44:52.073Z,3.28
2022-07-28T15:48:57.129Z,3.33
2022-07-28T15:52:59.077Z,3.90
2022-07-28T15:57:00.789Z,2.97
2022-07-28T16:01:02.356Z,3.35
2022-07-28T16:05:04.037Z,2.92
2022-07-28T16:09:06.564Z,3.28
2022-07-28T16:13:08.355Z,3.75
2022-07-28T16:17:17.051Z,2.80
2022-07-28T16:21:36.659Z,2.50
2022-07-28T16:25:45.295Z,3.08
2022-07-28T16:29:49.989Z,3.03
2022-07-28T16:34:43.509Z,2.78
2022-07-28T16:38:53.892Z,2.78
2022-07-28T16:47:39.884Z,2.88
2022-07-28T16:51:46.559Z,2.97
2022-07-28T16:55:51.455Z,2.85
2022-07-28T17:00:10.404Z,3.13
2022-07-28T17:04:12.375Z,3.00
2022-07-28T17:13:28.485Z,2.80
2022-07-28T17:18:00.757Z,2.60
2022-07-28T17:22:09.676Z,3.40
2022-07-28T17:31:12.441Z,2.92
2022-07-28T17:35:31.656Z,3.00
2022-07-28T17:39:39.440Z,2.63
2022-07-28T17:43:46.852Z,2.55
2022-07-28T17:47:53.454Z,2.55
2022-07-28T17:52:01.470Z,2.50
2022-07-28T17:56:09.014Z,3.13
2022-07-28T18:00:21.905Z,3.28
2022-07-28T18:04:59.606Z,3.20
2022-07-28T18:20:20.749Z,2.78
2022-07-28T18:28:56.771Z,3.25
2022-07-28T18:37:54.375Z,2.40
2022-07-28T18:42:57.323Z,2.65
2022-07-28T18:47:02.003Z,2.55
2022-07-28T18:56:02.969Z,2.33
2022-07-28T19:00:16.426Z,2.92
2022-07-28T19:04:18.783Z,2.25
2022-07-28T19:08:20.790Z,2.70
2022-07-28T19:12:29.355Z,3.13
2022-07-28T19:16:35.354Z,2.78
2022-07-28T19:20:37.188Z,3.42
2022-07-28T19:24:41.055Z,3.25
2022-07-28T19:28:48.424Z,2.83
2022-07-28T19:37:00.094Z,2.72
2022-07-28T19:41:05.535Z,4.32
2022-07-28T19:45:20.037Z,6.20
2022-07-28T19:49:26.919Z,4.97
2022-07-28T19:53:37.747Z,6.88
2022-07-28T19:57:50.351Z,5.00
2022-07-28T20:02:16.807Z,5.07
2022-07-28T20:06:25.155Z,5.43
2022-07-28T20:10:31.544Z,4.75
2022-07-28T20:14:36.028Z,4.45
2022-07-28T20:18:42.500Z,5.38
2022-07-28T20:22:58.848Z,4.85
2022-07-28T20:27:04.627Z,4.03
2022-07-28T20:31:33.796Z,4.50
2022-07-28T20:45:21.137Z,5.82
2022-07-28T20:59:35.144Z,5.72
2022-07-28T21:08:21.605Z,5.55
2022-07-28T21:18:08.527Z,6.75
2022-07-28T21:26:33.113Z,6.23
2022-07-28T21:30:43.133Z,5.68
2022-07-28T21:34:56.032Z,5.72
2022-07-28T21:38:57.739Z,5.90
2022-07-28T21:43:20.442Z,6.35
2022-07-28T21:47:27.942Z,5.47
2022-07-28T21:51:48.783Z,5.55
2022-07-28T21:56:00.806Z,5.03
2022-07-28T22:00:35.992Z,5.53
2022-07-28T22:04:43.769Z,5.22
2022-07-28T22:08:53.954Z,5.75
2022-07-28T22:12:56.939Z,5.63
2022-07-28T22:17:02.056Z,7.25
2022-07-28T22:21:03.725Z,5.47
2022-07-28T22:25:05.559Z,5.72
2022-07-28T22:29:07.007Z,6.13
2022-07-28T22:33:08.459Z,6.15
2022-07-28T22:37:13.212Z,6.18
2022-07-28T22:41:14.860Z,5.47
2022-07-28T22:45:16.529Z,4.85
2022-07-28T22:49:38.151Z,5.30
2022-07-28T22:53:40.304Z,4.65
2022-07-28T22:57:41.766Z,4.55
2022-07-28T23:01:43.349Z,5.20
2022-07-28T23:05:44.854Z,5.03
2022-07-28T23:09:46.385Z,5.22
2022-07-28T23:13:47.912Z,5.07
2022-07-28T23:17:49.408Z,5.70
2022-07-28T23:21:51.072Z,6.20
2022-07-28T23:25:52.641Z,5.03
2022-07-28T23:29:54.125Z,6.13
2022-07-28T23:33:57.696Z,5.18
2022-07-28T23:37:59.228Z,6.35
2022-07-28T23:42:00.656Z,5.90
2022-07-28T23:46:02.118Z,5.57
2022-07-28T23:50:04.937Z,6.28
2022-07-28T23:54:06.343Z,6.53
2022-07-28T23:58:07.773Z,5.80
